METAR

Letisková meteorologická správa METAR

Meteorologické informácie z ďalších profesionálnych meteorologických staníc SHMÚ zobrazené v tvare zodpovedajúcom pravidlám kódovania správ METAR sú uvedené v položke „METSYN

Informácie o správe METAR

11.08.2020 - 19:30 UTC

METAR LZIB 111930Z 01003KT CAVOK 20/18 Q1018=
METAR LZKZ 111930Z 35008KT CAVOK 24/15 Q1018=
METAR LZPP 111930Z 09003KT CAVOK 19/17 Q1018=
METAR LZSL 111930Z 00000KT CAVOK 18/16 Q1019=
METAR LZTT 111930Z VRB02KT 9999 SCT056 16/14 Q1021=
METAR LZZI 111930Z 17004KT 150V220 CAVOK 19/16 Q1019=

11.08.2020 - 19:00 UTC

METAR LZIB 111900Z 01005KT CAVOK 20/18 Q1018=
METAR LZKZ 111900Z 35009KT CAVOK 24/15 Q1017=
METAR LZPP 111900Z 08003KT CAVOK 19/17 Q1018=
METAR LZSL 111900Z 33003KT CAVOK 18/16 Q1019=
METAR LZTT 111900Z 29003KT 260V330 9999 SCT056 17/14 Q1021=
METAR LZZI 111900Z 16003KT 110V180 CAVOK 19/18 Q1019=

11.08.2020 - 19:00 UTC

METAR LZMC 111900Z 11004KT CAVOK 19/17 Q1018=
METAR LZPW 111900Z 08004KT CAVOK 19/15 Q1018=

skok na menu ↑


skok na začiatok stránky ↑